Time;durP1;ratioP1;P1;durP2;ratioP2;P2;SDS_P1;SDS_P2;PMS_P1;PMS_P2;Temp;Humidity;BMP_temperature;BMP_pressure;BME280_temperature;BME280_humidity;BME280_pressure;Samples;Min_cycle;Max_cycle;Signal;HPM_P1;HPM_P2
2022/05/27 00:01:27;;;;;;;6.17;2.37;;;21.60;78.50;;;22.06;53.21;95482.25;5041412;28;20448;-53
2022/05/27 00:03:55;;;;;;;3.13;2.67;;;21.60;78.60;;;22.05;53.05;95491.28;5041769;28;20460;-56
2022/05/27 00:06:22;;;;;;;8.13;2.33;;;21.60;78.70;;;22.03;53.11;95487.97;5043610;28;20466;-52
2022/05/27 00:08:49;;;;;;;2.77;2.57;;;21.60;78.70;;;21.97;53.24;95488.78;5042669;28;20462;-54
2022/05/27 00:11:17;;;;;;;10.23;5.40;;;21.50;78.90;;;21.93;53.37;95493.66;5043336;28;20486;-51
2022/05/27 00:13:44;;;;;;;10.10;7.70;;;21.50;79.20;;;21.89;53.44;95494.25;5042765;28;20463;-54
2022/05/27 00:16:13;;;;;;;12.70;8.57;;;21.40;79.30;;;21.81;53.49;95490.72;5043705;28;20535;-54
2022/05/27 00:18:40;;;;;;;9.37;7.20;;;21.40;79.60;;;21.75;53.72;95487.97;5038999;28;20839;-54
2022/05/27 00:21:08;;;;;;;7.10;5.90;;;21.30;79.80;;;21.68;53.92;95490.59;5043114;28;20483;-54
2022/05/27 00:23:35;;;;;;;11.13;5.63;;;21.20;80.10;;;21.64;53.82;95500.03;5040413;28;20447;-56
2022/05/27 00:26:02;;;;;;;9.10;5.17;;;21.20;80.30;;;21.58;54.19;95493.63;5039893;28;20475;-55
2022/05/27 00:28:29;;;;;;;6.90;5.03;;;21.10;80.60;;;21.53;54.44;95487.19;5037855;28;20471;-55
2022/05/27 00:30:57;;;;;;;9.03;4.17;;;21.10;80.90;;;21.47;54.52;95478.88;5041669;28;20561;-56
2022/05/27 00:33:25;;;;;;;6.53;4.23;;;21.00;80.90;;;21.42;54.94;95483.16;5042711;28;20463;-54
2022/05/27 00:35:53;;;;;;;4.20;3.80;;;21.00;81.10;;;21.35;54.63;95482.25;5037986;28;20502;-54
2022/05/27 00:38:20;;;;;;;4.47;4.07;;;20.90;81.30;;;21.29;54.90;95483.84;5040942;28;21032;-55
2022/05/27 00:40:49;;;;;;;5.23;3.60;;;20.90;81.70;;;21.25;54.99;95485.25;5039725;28;21085;-54
2022/05/27 00:43:16;;;;;;;3.70;3.40;;;20.80;82.00;;;21.21;55.07;95478.63;5042114;28;20830;-52
2022/05/27 00:45:45;;;;;;;4.17;2.90;;;20.80;82.30;;;21.15;55.35;95477.56;5039474;28;21000;-54
2022/05/27 00:48:14;;;;;;;3.53;3.23;;;20.70;82.70;;;21.11;55.66;95479.75;5041412;28;20448;-55
2022/05/27 00:50:44;;;;;;;4.73;2.77;;;20.70;82.90;;;21.07;55.25;95475.81;5041691;28;20895;-55
2022/05/27 00:53:18;;;;;;;7.43;3.50;;;20.60;83.00;;;21.03;55.71;95473.72;5042241;28;21044;-52
2022/05/27 00:55:49;;;;;;;3.00;2.80;;;20.60;83.20;;;20.98;55.57;95473.47;5041036;28;20495;-54
2022/05/27 00:58:19;;;;;;;8.03;2.77;;;20.60;83.40;;;20.94;55.86;95473.84;5040015;28;20462;-54
2022/05/27 01:00:46;;;;;;;4.90;1.90;;;20.50;83.50;;;20.90;55.97;95471.75;5040471;28;20487;-55
2022/05/27 01:03:14;;;;;;;3.10;2.90;;;20.40;83.80;;;20.86;55.92;95470.47;5040382;28;20479;-53
2022/05/27 01:05:44;;;;;;;4.10;2.40;;;20.40;83.80;;;20.81;55.81;95471.03;5043365;28;20480;-54
2022/05/27 01:08:11;;;;;;;3.27;2.70;;;20.40;83.80;;;20.76;55.83;95468.91;5047016;28;20490;-52
2022/05/27 01:10:46;;;;;;;8.70;2.87;;;20.40;84.10;;;20.73;56.05;95476.50;5046239;28;21054;-54
2022/05/27 01:13:25;;;;;;;2.60;2.40;;;20.30;84.30;;;20.70;55.95;95466.19;5044596;28;20459;-54
2022/05/27 01:15:59;;;;;;;3.67;3.03;;;20.30;84.60;;;20.68;56.17;95471.72;5046251;28;22214;-53
2022/05/27 01:21:32;;;;;;;6.83;2.80;;;20.20;84.80;;;20.62;56.31;95464.41;5039191;28;20455;-55
2022/05/27 01:24:33;;;;;;;3.57;2.73;;;20.20;84.60;;;20.59;56.11;95465.59;5044572;28;20880;-56
2022/05/27 01:27:15;;;;;;;3.10;2.00;;;20.20;85.00;;;20.57;56.40;95461.44;5045328;28;20463;-53
2022/05/27 01:30:23;;;;;;;3.20;2.73;;;20.10;84.60;;;20.57;56.42;95462.28;5046349;28;20918;-53
2022/05/27 01:33:13;;;;;;;3.97;2.90;;;20.20;84.70;;;20.58;56.31;95455.91;5045045;28;20567;-54
2022/05/27 01:35:45;;;;;;;3.40;2.57;;;20.20;84.50;;;20.58;55.77;95461.25;5045200;28;21022;-54
2022/05/27 01:38:19;;;;;;;3.20;2.90;;;20.20;84.40;;;20.59;55.73;95456.75;5054900;28;20971;-53
2022/05/27 01:40:57;;;;;;;3.00;2.60;;;20.10;84.20;;;20.60;56.00;95453.06;5048120;28;20477;-56
2022/05/27 01:43:32;;;;;;;4.90;3.17;;;20.20;84.00;;;20.62;55.83;95451.03;5048868;28;20456;-55
2022/05/27 01:46:04;;;;;;;4.80;2.43;;;20.10;83.70;;;20.64;55.08;95445.50;5042511;28;20486;-54
2022/05/27 01:48:33;;;;;;;3.53;2.33;;;20.20;83.40;;;20.65;55.41;95453.38;5046572;28;20825;-54
2022/05/27 01:51:05;;;;;;;2.40;2.20;;;20.20;83.30;;;20.66;55.48;95455.00;5044008;28;20494;-56
2022/05/27 01:53:37;;;;;;;6.00;3.03;;;20.20;83.10;;;20.66;55.06;95449.66;5044037;28;20834;-55
2022/05/27 01:56:10;;;;;;;3.03;2.83;;;20.20;82.80;;;20.67;54.71;95448.66;5046314;28;20491;-56
2022/05/27 01:58:39;;;;;;;4.13;2.57;;;20.20;82.60;;;20.70;54.93;95444.78;5044072;28;20447;-54
2022/05/27 02:01:11;;;;;;;11.00;2.60;;;20.20;82.50;;;20.71;55.03;95452.63;5044079;28;20480;-53
2022/05/27 02:03:40;;;;;;;6.30;2.47;;;20.20;82.20;;;20.72;54.54;95448.09;5046486;28;20743;-52
2022/05/27 02:06:11;;;;;;;8.40;2.83;;;20.20;82.00;;;20.72;54.48;95448.91;5043199;28;20479;-55
2022/05/27 02:08:42;;;;;;;4.37;2.13;;;20.30;82.00;;;20.72;54.48;95445.41;5045673;28;20471;-54
2022/05/27 02:11:12;;;;;;;5.00;3.10;;;20.30;81.80;;;20.71;54.98;95444.59;5042574;28;20830;-55
2022/05/27 02:13:42;;;;;;;5.37;3.40;;;20.30;82.20;;;20.70;54.81;95450.94;5044867;28;20453;-55
2022/05/27 02:16:13;;;;;;;3.67;3.37;;;20.30;82.80;;;20.66;55.55;95449.66;5046086;28;20606;-53
2022/05/27 02:18:45;;;;;;;6.90;3.70;;;20.20;83.20;;;20.59;55.64;95448.75;5042584;28;20559;-55
2022/05/27 02:21:16;;;;;;;8.20;3.93;;;20.20;83.80;;;20.50;55.73;95455.22;5042983;28;20534;-55
2022/05/27 02:23:46;;;;;;;5.50;4.00;;;20.10;84.20;;;20.42;56.18;95456.97;5044139;28;20517;-56
2022/05/27 02:26:17;;;;;;;5.93;4.30;;;20.00;84.50;;;20.37;56.28;95456.72;5040869;28;20482;-55
2022/05/27 02:28:46;;;;;;;4.03;3.27;;;20.00;85.10;;;20.36;57.01;95459.56;5042058;28;20479;-55
2022/05/27 02:31:17;;;;;;;10.17;3.87;;;19.90;85.50;;;20.35;56.58;95457.91;5045047;28;21000;-54
2022/05/27 02:36:36;;;;;;;6.70;4.40;;;19.90;86.10;;;20.29;56.69;95470.16;5042026;28;20553;-52
2022/05/27 02:39:03;;;;;;;4.20;3.83;;;19.90;86.10;;;20.27;56.91;95460.69;5046054;28;20448;-54
2022/05/27 02:41:34;;;;;;;3.83;3.50;;;19.80;86.10;;;20.24;57.38;95462.69;5040687;28;20467;-54
2022/05/27 02:44:12;;;;;;;11.07;4.17;;;19.80;86.30;;;20.21;57.23;95462.25;5043103;28;21006;-53
2022/05/27 02:46:49;;;;;;;11.23;3.97;;;19.80;86.60;;;20.19;57.02;95459.75;5044711;28;20523;-53
2022/05/27 02:49:21;;;;;;;10.60;2.40;;;19.80;86.40;;;20.15;57.24;95460.31;5042659;28;20475;-54
2022/05/27 02:51:54;;;;;;;3.43;2.53;;;19.70;86.20;;;20.11;57.02;95467.03;5043946;28;20975;-52
2022/05/27 02:54:26;;;;;;;5.47;3.03;;;19.70;86.00;;;20.08;56.94;95470.91;5042263;28;20502;-55
2022/05/27 02:56:59;;;;;;;5.40;3.07;;;19.70;86.10;;;20.04;57.14;95462.41;5041069;28;20483;-54
2022/05/27 02:59:26;;;;;;;5.80;3.63;;;19.60;86.10;;;20.00;57.17;95460.28;5041459;28;20504;-55
2022/05/27 03:01:55;;;;;;;6.20;3.37;;;19.60;86.90;;;19.96;56.63;95465.19;5042648;28;20482;-53
2022/05/27 03:04:22;;;;;;;5.00;3.20;;;19.60;86.20;;;19.92;56.92;95460.41;5044302;28;20490;-53
2022/05/27 03:06:56;;;;;;;3.17;2.87;;;19.50;86.40;;;19.89;56.94;95464.25;5042231;28;20472;-53
2022/05/27 03:09:29;;;;;;;7.33;3.47;;;19.50;86.70;;;19.87;57.45;95461.75;5038313;28;20479;-54
2022/05/27 03:12:06;;;;;;;4.97;2.67;;;19.50;86.90;;;19.84;57.37;95472.81;5044947;28;20557;-53
2022/05/27 03:14:52;;;;;;;3.33;3.00;;;19.50;87.30;;;19.83;57.61;95468.50;5040002;28;21070;-55
2022/05/27 03:17:35;;;;;;;6.70;3.33;;;19.40;87.30;;;19.81;57.75;95464.34;5040183;28;20475;-55
2022/05/27 03:20:19;;;;;;;5.63;3.17;;;19.40;87.60;;;19.79;58.07;95463.72;5044418;28;20488;-55
2022/05/27 03:23:01;;;;;;;7.30;2.70;;;19.40;87.50;;;19.78;58.02;95470.03;5043820;28;20491;-55
2022/05/27 03:25:38;;;;;;;6.70;2.90;;;19.40;87.70;;;19.76;57.70;95464.03;5041004;28;20690;-54
2022/05/27 03:28:11;;;;;;;9.60;3.40;;;19.30;87.90;;;19.76;58.13;95470.19;5042018;28;20463;-54
2022/05/27 03:30:45;;;;;;;8.23;3.47;;;19.30;88.10;;;19.77;57.71;95463.88;5043358;28;20515;-54
2022/05/27 03:33:18;;;;;;;7.03;4.27;;;19.30;88.10;;;19.78;57.50;95467.38;5043468;28;20448;-54
2022/05/27 03:35:50;;;;;;;9.13;3.43;;;19.30;88.20;;;19.78;58.05;95464.72;5041541;28;20474;-55
2022/05/27 03:38:21;;;;;;;11.13;3.20;;;19.40;88.40;;;19.79;58.28;95469.03;5042757;28;20517;-55
2022/05/27 03:40:50;;;;;;;3.33;3.03;;;19.40;88.60;;;19.80;58.17;95471.53;5042356;28;20480;-52
2022/05/27 03:43:18;;;;;;;12.20;3.87;;;19.40;88.60;;;19.80;57.78;95462.69;5040457;28;20468;-56
2022/05/27 03:45:51;;;;;;;5.43;3.17;;;19.40;88.70;;;19.82;58.29;95468.69;5039970;28;21334;-55
2022/05/27 03:48:20;;;;;;;4.80;3.27;;;19.40;89.00;;;19.83;58.40;95464.97;5042172;28;20475;-54
2022/05/27 03:50:48;;;;;;;5.60;3.43;;;19.40;89.00;;;19.83;57.81;95467.66;5042731;28;20487;-54
2022/05/27 03:53:15;;;;;;;6.50;3.50;;;19.40;89.10;;;19.87;58.14;95463.63;5045892;28;20444;-54
2022/05/27 03:55:44;;;;;;;7.20;3.90;;;19.50;89.40;;;19.90;57.79;95470.44;5042406;28;20476;-56
2022/05/27 03:58:13;;;;;;;10.47;3.60;;;19.50;89.50;;;19.95;58.37;95470.72;5042353;28;20451;-55
2022/05/27 04:00:41;;;;;;;13.23;3.80;;;19.50;89.40;;;19.98;58.21;95467.66;5037750;28;20476;-54
2022/05/27 04:03:09;;;;;;;6.60;3.83;;;19.60;89.70;;;20.00;58.07;95471.81;5046442;28;20459;-54
2022/05/27 04:05:38;;;;;;;9.70;3.40;;;19.60;89.60;;;20.06;58.06;95465.75;5043030;28;20468;-55
2022/05/27 04:08:06;;;;;;;9.53;3.97;;;19.60;89.40;;;20.12;58.19;95472.19;5043946;28;20451;-55
2022/05/27 04:10:33;;;;;;;6.33;3.77;;;19.70;89.40;;;20.19;58.12;95465.09;5040595;28;20464;-56
2022/05/27 04:13:00;;;;;;;9.50;3.53;;;19.70;89.30;;;20.25;57.75;95468.88;5041145;28;20956;-54
2022/05/27 04:15:28;;;;;;;8.60;4.23;;;19.80;89.10;;;20.30;57.86;95463.81;5040296;28;20482;-53
2022/05/27 04:17:55;;;;;;;11.63;3.60;;;19.90;89.20;;;20.34;57.63;95472.25;5040368;28;20500;-56
2022/05/27 04:20:22;;;;;;;10.00;3.47;;;19.90;89.00;;;20.38;57.69;95471.69;5041985;28;20483;-53
2022/05/27 04:22:55;;;;;;;6.03;4.10;;;19.90;88.80;;;20.44;57.61;95469.31;5042632;28;20456;-54
2022/05/27 04:25:22;;;;;;;8.10;3.80;;;20.00;88.70;;;20.46;57.47;95469.97;5039151;28;20472;-56
2022/05/27 04:27:49;;;;;;;7.53;4.20;;;20.00;88.50;;;20.47;57.68;95466.28;5040220;28;20933;-56
2022/05/27 04:30:17;;;;;;;5.03;3.83;;;20.10;88.40;;;20.49;57.18;95469.59;5041715;28;20558;-56
2022/05/27 04:32:44;;;;;;;3.90;3.60;;;20.00;88.20;;;20.51;57.58;95468.38;5040192;28;20460;-56
2022/05/27 04:35:12;;;;;;;9.87;4.40;;;20.10;88.40;;;20.53;57.21;95469.03;5040206;28;20562;-56
2022/05/27 04:37:39;;;;;;;8.03;3.90;;;20.10;88.20;;;20.55;57.63;95474.19;5042215;28;20568;-54
2022/05/27 04:40:10;;;;;;;11.40;3.53;;;20.10;88.10;;;20.56;56.79;95465.97;5041262;28;20479;-56
2022/05/27 04:42:37;;;;;;;15.50;4.77;;;20.10;88.10;;;20.59;57.32;95470.94;5036063;28;20454;-56
2022/05/27 04:45:05;;;;;;;10.93;4.30;;;20.10;88.00;;;20.61;57.11;95473.44;5041530;28;20476;-54
2022/05/27 04:47:33;;;;;;;12.23;4.23;;;20.20;88.10;;;20.63;56.94;95467.91;5042252;28;20490;-56
2022/05/27 04:50:00;;;;;;;18.57;5.40;;;20.20;88.00;;;20.67;57.19;95471.91;5044155;28;20506;-55
2022/05/27 04:52:29;;;;;;;24.47;5.10;;;20.20;88.00;;;20.69;57.14;95470.66;5042540;28;20525;-55
2022/05/27 04:54:57;;;;;;;12.40;5.63;;;20.20;87.90;;;20.72;57.07;95470.28;5040870;28;20480;-57
2022/05/27 04:57:30;;;;;;;13.33;4.73;;;20.30;88.10;;;20.76;57.10;95466.25;5041678;28;20742;-55
2022/05/27 04:59:57;;;;;;;8.70;4.50;;;20.30;88.10;;;20.81;57.32;95464.84;5045338;28;20504;-56
2022/05/27 05:02:25;;;;;;;10.30;5.43;;;20.40;88.40;;;20.86;57.32;95471.28;5042835;28;20521;-55
2022/05/27 05:04:53;;;;;;;5.50;4.27;;;20.40;88.40;;;20.91;57.57;95470.72;5043998;28;20877;-56
2022/05/27 05:07:21;;;;;;;15.57;4.90;;;20.50;88.50;;;20.97;57.24;95461.09;5043945;28;20456;-54
2022/05/27 05:09:48;;;;;;;9.30;4.93;;;20.50;88.40;;;21.04;57.23;95465.50;5046533;28;20778;-54
2022/05/27 05:12:15;;;;;;;8.07;4.70;;;20.60;88.30;;;21.13;57.02;95468.88;5047571;28;20459;-52
2022/05/27 05:14:44;;;;;;;18.50;5.00;;;20.70;88.40;;;21.25;57.07;95464.66;5047382;28;20475;-56
2022/05/27 05:17:11;;;;;;;11.80;4.43;;;20.70;88.20;;;21.38;56.52;95463.97;5047198;28;20515;-55
2022/05/27 05:19:39;;;;;;;11.30;5.13;;;20.90;87.50;;;21.54;56.35;95470.09;5048747;28;20471;-53
2022/05/27 05:22:06;;;;;;;6.10;3.80;;;21.00;87.30;;;21.65;56.15;95462.34;5047858;28;21038;-54
2022/05/27 05:24:33;;;;;;;7.83;4.00;;;21.10;87.30;;;21.83;55.66;95467.25;5046575;28;20839;-56
2022/05/27 05:27:00;;;;;;;10.37;3.90;;;21.30;86.60;;;22.02;55.16;95464.88;5046371;28;20537;-58
2022/05/27 05:29:28;;;;;;;11.90;3.60;;;21.50;85.70;;;22.17;54.87;95460.25;5047927;28;20560;-55
2022/05/27 05:31:56;;;;;;;15.23;4.07;;;21.60;84.80;;;22.33;54.55;95456.44;5043531;28;20456;-55
2022/05/27 05:34:24;;;;;;;4.27;3.87;;;21.80;85.10;;;22.55;54.73;95469.72;5046730;28;20995;-54
2022/05/27 05:36:54;;;;;;;6.60;3.83;;;21.90;84.60;;;22.76;53.74;95458.06;5047281;28;20491;-56
2022/05/27 05:39:21;;;;;;;7.20;3.90;;;22.20;83.30;;;22.96;53.52;95465.31;5040955;28;20976;-55
2022/05/27 05:41:56;;;;;;;14.13;3.87;;;22.30;82.20;;;23.15;52.65;95458.41;5044685;28;20986;-56
2022/05/27 05:44:23;;;;;;;6.30;3.27;;;22.50;81.90;;;23.35;52.10;95458.41;5046611;28;20467;-54
2022/05/27 05:46:51;;;;;;;8.67;3.63;;;22.70;80.60;;;23.48;52.13;95458.41;5045483;28;20459;-56
2022/05/27 05:49:19;;;;;;;3.83;3.10;;;22.90;80.30;;;23.63;52.25;95456.34;5043745;28;20484;-55
2022/05/27 05:51:47;;;;;;;3.90;3.10;;;23.00;79.70;;;23.79;51.39;95460.47;5045510;28;20569;-52
2022/05/27 05:54:14;;;;;;;13.93;3.27;;;23.20;79.20;;;23.95;51.19;95459.25;5044724;28;20479;-54
2022/05/27 05:56:41;;;;;;;11.60;4.13;;;23.30;78.40;;;24.12;50.88;95466.84;5047869;28;20498;-55
2022/05/27 05:59:09;;;;;;;11.03;3.50;;;23.50;78.20;;;24.29;50.81;95465.38;5045697;28;20557;-52
2022/05/27 06:01:36;;;;;;;7.37;3.67;;;23.70;77.20;;;24.41;50.22;95462.03;5047071;28;20805;-55
2022/05/27 06:04:04;;;;;;;5.70;3.00;;;23.80;76.60;;;24.55;49.93;95463.63;5043812;28;20957;-54
2022/05/27 06:06:32;;;;;;;9.23;3.83;;;23.90;76.20;;;24.74;49.85;95463.81;5046289;28;20452;-53
2022/05/27 06:09:00;;;;;;;11.90;3.50;;;24.10;75.40;;;24.92;49.26;95463.91;5044268;28;20509;-54
2022/05/27 06:11:29;;;;;;;19.27;3.40;;;24.30;75.00;;;25.09;49.29;95461.56;5045132;28;20451;-53
2022/05/27 06:13:57;;;;;;;8.63;3.50;;;24.40;74.10;;;25.25;49.25;95452.13;5046250;28;20530;-55
2022/05/27 06:16:24;;;;;;;8.83;4.03;;;24.50;73.70;;;25.44;49.24;95455.78;5045981;28;20474;-54
2022/05/27 06:18:51;;;;;;;5.30;3.00;;;24.80;73.30;;;25.63;48.67;95453.94;5044474;28;20451;-55
2022/05/27 06:21:19;;;;;;;6.77;2.93;;;24.90;72.10;;;25.81;48.02;95461.28;5046153;28;20451;-54
2022/05/27 06:23:47;;;;;;;8.57;3.43;;;25.10;72.00;;;25.91;47.94;95456.19;5043395;28;20451;-56
2022/05/27 06:26:15;;;;;;;16.80;3.20;;;25.20;70.80;;;25.98;47.34;95461.56;5045595;28;20471;-55
2022/05/27 06:34:26;;;;;;;16.50;3.20;;;25.50;68.50;;;26.30;46.78;95458.75;5042742;28;20490;-55
2022/05/27 06:36:56;;;;;;;3.93;2.80;;;25.60;68.40;;;26.43;46.32;95457.75;5046214;28;20482;-52
2022/05/27 06:39:25;;;;;;;7.50;2.97;;;25.70;67.40;;;26.54;46.51;95443.53;5043323;28;20485;-56
2022/05/27 06:41:53;;;;;;;4.70;2.87;;;25.80;66.80;;;26.67;46.05;95450.66;5043726;28;20940;-54
2022/05/27 06:44:21;;;;;;;9.90;3.10;;;26.00;66.00;;;26.80;45.56;95437.00;5044787;28;20903;-56
2022/05/27 06:46:51;;;;;;;5.90;2.67;;;26.10;65.40;;;26.81;45.09;95440.53;5043478;28;21005;-56
2022/05/27 06:49:18;;;;;;;8.80;3.20;;;26.10;63.60;;;26.77;45.24;95432.06;5043724;28;20476;-55
2022/05/27 06:51:46;;;;;;;6.03;3.40;;;26.20;63.70;;;26.88;44.84;95433.19;5045658;28;20462;-56
2022/05/27 06:54:13;;;;;;;5.30;3.03;;;26.20;63.70;;;27.05;44.88;95441.47;5045727;28;20479;-56
2022/05/27 06:56:43;;;;;;;7.57;4.07;;;26.30;63.40;;;27.25;44.22;95438.47;5045625;28;20489;-55
2022/05/27 06:59:10;;;;;;;3.33;2.60;;;26.50;62.00;;;27.38;43.93;95437.47;5043558;28;20451;-53
2022/05/27 07:01:38;;;;;;;6.63;2.60;;;26.60;61.90;;;27.53;43.76;95435.16;5044038;28;20830;-54
2022/05/27 07:04:05;;;;;;;3.60;2.47;;;26.80;60.80;;;27.71;43.62;95436.09;5045584;28;20501;-53
2022/05/27 07:06:37;;;;;;;3.83;2.30;;;27.00;59.90;;;27.90;42.98;95434.94;5042785;28;20455;-54
2022/05/27 07:09:06;;;;;;;126.93;7.83;;;27.20;59.50;;;28.05;42.36;95429.06;5044499;28;20504;-55
2022/05/27 07:11:34;;;;;;;11.57;2.77;;;27.40;58.50;;;28.11;42.51;95430.03;5036356;28;20455;-55
2022/05/27 07:14:03;;;;;;;10.30;2.90;;;27.40;57.90;;;28.23;41.75;95425.44;5040852;28;20503;-55
2022/05/27 07:16:30;;;;;;;4.90;2.30;;;27.50;57.70;;;28.39;41.23;95410.34;5041475;28;20462;-55
2022/05/27 07:18:58;;;;;;;7.23;3.10;;;27.70;57.10;;;28.56;41.01;95413.13;5043571;28;20491;-55
2022/05/27 07:21:25;;;;;;;8.10;2.73;;;27.80;56.30;;;28.74;41.35;95408.63;5043158;28;20470;-55
2022/05/27 07:23:53;;;;;;;5.33;2.30;;;28.00;56.00;;;28.90;40.29;95402.44;5043115;28;20466;-58
2022/05/27 07:26:21;;;;;;;6.73;2.73;;;28.20;55.20;;;29.02;40.26;95396.13;5041033;28;20467;-56
2022/05/27 07:28:48;;;;;;;6.07;3.00;;;28.30;54.70;;;29.12;39.93;95401.75;5044811;28;20963;-56
2022/05/27 07:31:18;;;;;;;13.77;3.03;;;28.40;54.50;;;29.23;39.87;95395.47;5038351;28;20556;-55
2022/05/27 07:33:45;;;;;;;4.07;2.60;;;28.50;54.40;;;29.36;39.87;95391.63;5041583;28;20459;-56
2022/05/27 07:36:13;;;;;;;5.27;2.63;;;28.60;53.60;;;29.46;39.29;95389.06;5041568;28;20968;-55
2022/05/27 07:38:40;;;;;;;6.83;3.27;;;28.80;53.40;;;29.58;39.88;95382.78;5042578;28;20491;-55
2022/05/27 07:41:08;;;;;;;13.20;3.80;;;28.90;53.50;;;29.69;39.32;95381.84;5042313;28;20507;-56
2022/05/27 07:43:36;;;;;;;5.50;2.60;;;29.00;53.50;;;29.71;39.51;95382.41;5043425;28;20975;-56
2022/05/27 07:46:03;;;;;;;7.07;2.67;;;29.00;52.60;;;29.76;38.61;95376.25;5040080;28;20269;-56
2022/05/27 07:48:32;;;;;;;11.00;3.20;;;29.00;52.30;;;29.84;38.45;95379.41;5044365;28;20860;-57
2022/05/27 07:51:00;;;;;;;8.60;2.90;;;29.10;52.10;;;29.89;38.76;95378.66;5039235;28;20468;-53
2022/05/27 07:53:27;;;;;;;3.13;2.63;;;29.10;51.90;;;29.95;38.44;95383.06;5043342;28;20451;-53
2022/05/27 07:55:54;;;;;;;3.30;2.87;;;29.20;52.00;;;30.04;38.13;95376.16;5041734;28;21004;-57
2022/05/27 07:58:22;;;;;;;10.00;2.60;;;29.30;51.40;;;30.19;37.43;95377.44;5043330;28;20578;-54
2022/05/27 08:00:50;;;;;;;8.90;2.37;;;29.40;50.00;;;30.27;36.75;95381.59;5041411;28;20293;-54
2022/05/27 08:03:18;;;;;;;2.50;1.77;;;29.50;49.30;;;30.29;36.52;95380.28;5041191;28;20955;-56
2022/05/27 08:05:47;;;;;;;2.70;2.43;;;29.50;49.10;;;30.24;36.02;95373.97;5043573;28;20471;-57
2022/05/27 08:08:15;;;;;;;8.90;2.50;;;29.50;48.00;;;30.25;35.96;95370.19;5042368;28;20456;-55
2022/05/27 08:10:42;;;;;;;9.87;2.90;;;29.50;48.30;;;30.30;36.12;95362.91;5040670;28;20745;-56
2022/05/27 08:13:10;;;;;;;4.67;3.43;;;29.50;48.60;;;30.39;37.09;95372.28;5039754;28;20466;-54
2022/05/27 08:15:37;;;;;;;8.10;2.57;;;29.60;48.80;;;30.47;36.73;95364.78;5042296;28;20225;-56
2022/05/27 08:18:05;;;;;;;14.60;2.80;;;29.70;48.60;;;30.56;36.80;95366.78;5043415;28;20323;-55
2022/05/27 08:20:34;;;;;;;6.47;2.67;;;29.80;48.90;;;30.70;36.87;95361.78;5041742;28;20290;-55
2022/05/27 08:23:03;;;;;;;7.30;2.87;;;29.90;48.80;;;30.87;36.28;95361.69;5040329;28;20534;-55
2022/05/27 08:25:31;;;;;;;6.27;2.87;;;30.10;48.40;;;30.99;35.98;95356.13;5043798;28;20232;-55
2022/05/27 08:27:58;;;;;;;3.07;2.67;;;30.20;47.90;;;31.05;35.73;95355.09;5042636;28;20287;-55
2022/05/27 08:30:28;;;;;;;13.23;3.37;;;30.30;47.70;;;31.22;35.48;95354.19;5042739;28;20232;-54
2022/05/27 08:32:55;;;;;;;3.27;2.70;;;30.50;47.50;;;31.35;36.04;95351.00;5041952;28;20216;-57
2022/05/27 08:38:11;;;;;;;14.37;2.70;;;30.70;46.80;;;31.53;35.99;95340.84;5040992;28;20304;-54
2022/05/27 08:41:03;;;;;;;8.80;3.57;;;30.80;47.30;;;31.65;35.28;95338.75;5043766;28;20216;-56
2022/05/27 08:43:35;;;;;;;5.10;3.10;;;30.90;47.10;;;31.84;34.78;95352.75;5043405;28;20276;-57
2022/05/27 08:46:11;;;;;;;6.63;3.10;;;31.00;46.60;;;32.00;34.43;95337.34;5039912;28;20308;-57
2022/05/27 08:48:41;;;;;;;9.67;3.07;;;31.30;46.60;;;32.16;34.44;95343.69;5040089;28;20208;-57
2022/05/27 08:51:15;;;;;;;4.25;2.47;;;31.40;46.00;;;32.30;34.76;95334.00;5043718;28;20220;-56
2022/05/27 08:53:47;;;;;;;7.20;2.67;;;31.60;46.10;;;32.44;34.64;95331.59;5039150;28;20204;-56
2022/05/27 09:01:51;;;;;;;14.60;2.92;;;31.90;45.60;;;32.71;34.48;95330.59;5043256;28;20263;-56
2022/05/27 09:04:23;;;;;;;9.20;2.53;;;32.00;45.50;;;32.70;33.49;95323.50;5044641;28;20224;-56
2022/05/27 09:06:53;;;;;;;6.50;3.30;;;32.00;44.80;;;32.66;33.64;95325.16;5042774;28;20205;-54
2022/05/27 09:09:24;;;;;;;7.50;2.92;;;32.00;44.80;;;32.70;33.86;95326.22;5044345;28;20286;-57
2022/05/27 09:12:19;;;;;;;3.72;2.80;;;32.00;44.70;;;32.80;32.41;95325.44;5039314;28;20197;-55
2022/05/27 09:14:49;;;;;;;7.03;3.00;;;32.10;43.80;;;32.90;33.54;95319.19;5039757;28;20224;-55
2022/05/27 09:17:24;;;;;;;7.47;3.45;;;32.20;43.90;;;32.99;33.34;95312.13;5043678;28;20263;-54
2022/05/27 09:19:55;;;;;;;6.28;3.05;;;32.20;43.90;;;33.13;33.32;95312.41;5036759;28;20220;-56
2022/05/27 09:22:36;;;;;;;7.03;3.10;;;32.40;44.20;;;33.27;32.21;95312.72;5041489;28;20525;-55
2022/05/27 09:25:16;;;;;;;11.50;3.30;;;32.50;43.20;;;33.39;32.10;95308.59;5040842;28;20224;-53
2022/05/27 09:27:49;;;;;;;4.10;3.00;;;32.60;43.10;;;33.49;32.26;95301.50;5045955;28;20228;-57
2022/05/27 09:30:18;;;;;;;6.43;3.10;;;32.70;42.60;;;33.54;32.52;95299.59;5044291;28;20225;-56
2022/05/27 09:32:50;;;;;;;17.35;4.15;;;32.80;42.70;;;33.64;32.70;95292.50;5040614;28;20281;-53
2022/05/27 09:35:21;;;;;;;13.45;3.50;;;32.90;42.80;;;33.74;32.46;95300.66;5047013;28;20910;-57
2022/05/27 09:37:51;;;;;;;9.93;3.17;;;33.00;42.80;;;33.84;32.07;95289.75;5045398;28;20217;-55
2022/05/27 09:40:24;;;;;;;9.60;3.53;;;33.10;42.50;;;33.90;31.69;95280.44;5045128;28;20221;-53
2022/05/27 09:43:04;;;;;;;7.72;2.95;;;33.20;42.30;;;33.99;32.05;95279.84;5044229;28;20194;-55
2022/05/27 09:45:31;;;;;;;8.15;2.92;;;33.30;42.70;;;33.99;31.86;95277.13;5046881;28;20705;-55
2022/05/27 09:48:00;;;;;;;11.00;3.60;;;33.30;42.30;;;33.95;31.01;95274.97;5042268;28;20205;-55
2022/05/27 09:50:29;;;;;;;6.43;3.72;;;33.30;41.10;;;33.88;31.52;95268.16;5044156;28;20225;-56
2022/05/27 09:52:57;;;;;;;6.85;3.53;;;33.20;41.30;;;33.83;31.60;95274.44;5044526;28;20205;-55
2022/05/27 09:55:29;;;;;;;7.00;2.85;;;33.10;41.80;;;33.75;31.16;95270.38;5043419;28;20225;-56
2022/05/27 09:57:59;;;;;;;8.05;3.40;;;33.10;41.30;;;33.76;31.92;95265.75;5047003;28;20212;-56
2022/05/27 10:00:42;;;;;;;4.60;2.20;;;33.10;41.80;;;33.79;31.56;95264.38;5044039;28;20217;-56
2022/05/27 10:03:32;;;;;;;8.70;3.03;;;33.10;41.40;;;33.81;31.30;95265.72;5046642;28;20753;-54
2022/05/27 10:06:02;;;;;;;6.88;3.00;;;33.10;41.30;;;33.86;31.88;95259.44;5044966;28;20314;-58
2022/05/27 10:08:39;;;;;;;8.07;2.90;;;33.10;42.00;;;33.90;31.77;95263.25;5041596;28;20200;-56
2022/05/27 10:11:32;;;;;;;7.82;2.65;;;33.20;42.00;;;33.92;30.55;95255.59;5045640;28;20229;-55
2022/05/27 10:14:14;;;;;;;11.45;3.50;;;33.20;40.50;;;33.94;30.77;95246.03;5044843;28;20204;-54
2022/05/27 10:16:43;;;;;;;8.45;2.88;;;33.20;40.90;;;33.94;30.37;95240.59;5044083;28;20200;-56
2022/05/27 10:19:13;;;;;;;5.70;2.60;;;33.20;39.90;;;33.94;31.15;95239.75;5045604;28;20506;-54
2022/05/27 10:21:52;;;;;;;10.55;3.40;;;33.20;40.70;;;33.93;30.73;95238.13;5044413;28;20202;-53
2022/05/27 10:24:21;;;;;;;2.42;2.22;;;33.20;40.30;;;33.90;30.89;95236.78;5046615;28;20224;-55
2022/05/27 10:27:03;;;;;;;9.23;2.60;;;33.20;39.70;;;33.86;30.31;95232.16;5044644;28;20617;-56
2022/05/27 10:29:30;;;;;;;6.43;2.38;;;33.10;39.60;;;33.79;29.87;95227.00;5040865;28;20244;-54
2022/05/27 10:31:59;;;;;;;11.90;2.80;;;33.10;39.00;;;33.69;30.16;95229.72;5042624;28;20197;-54
2022/05/27 10:34:41;;;;;;;8.60;2.90;;;33.00;39.00;;;33.62;29.46;95226.47;5044436;28;20217;-54
2022/05/27 10:37:22;;;;;;;6.75;2.40;;;32.90;38.50;;;33.59;29.33;95222.41;5042301;28;20197;-53
2022/05/27 10:40:04;;;;;;;9.05;3.17;;;32.90;38.90;;;33.59;29.62;95220.47;5044725;28;20294;-55
2022/05/27 10:42:41;;;;;;;9.15;2.72;;;32.90;39.40;;;33.62;30.59;95213.66;5043706;28;20255;-55
2022/05/27 10:45:16;;;;;;;5.50;2.92;;;32.90;39.70;;;33.62;30.02;95212.81;5041826;28;20217;-56
2022/05/27 10:48:18;;;;;;;17.58;2.55;;;32.90;40.30;;;33.65;30.12;95209.53;5041261;28;20193;-56
2022/05/27 10:50:52;;;;;;;7.88;2.50;;;32.90;39.70;;;33.66;30.20;95198.34;5026976;28;20229;-52
2022/05/27 10:53:37;;;;;;;6.80;2.83;;;32.90;39.10;;;33.59;29.06;95204.09;5043111;28;20282;-55